sensor_id;sensor_type;location;lat;lon;timestamp;pressure;altitude;pressure_sealevel;temperature;humidity
40612;BME280;26317;44.894;20.286;2022-09-09T00:01:20;100406.06;;;24.60;68.70
40612;BME280;26317;44.894;20.286;2022-09-09T00:04:05;100402.84;;;24.54;68.74
40612;BME280;26317;44.894;20.286;2022-09-09T00:07:01;100402.41;;;24.52;68.78
40612;BME280;26317;44.894;20.286;2022-09-09T00:10:08;100397.69;;;24.49;68.88
40612;BME280;26317;44.894;20.286;2022-09-09T00:12:53;100387.38;;;24.43;68.43
40612;BME280;26317;44.894;20.286;2022-09-09T00:15:40;100400.72;;;24.44;68.53
40612;BME280;26317;44.894;20.286;2022-09-09T00:18:27;100415.63;;;24.47;68.80
40612;BME280;26317;44.894;20.286;2022-09-09T00:21:06;100408.50;;;24.42;68.73
40612;BME280;26317;44.894;20.286;2022-09-09T00:23:47;100404.56;;;24.40;68.69
40612;BME280;26317;44.894;20.286;2022-09-09T00:26:30;100400.59;;;24.37;69.08
40612;BME280;26317;44.894;20.286;2022-09-09T00:29:17;100411.13;;;24.35;68.97
40612;BME280;26317;44.894;20.286;2022-09-09T00:32:12;100417.34;;;24.32;69.44
40612;BME280;26317;44.894;20.286;2022-09-09T00:34:50;100418.09;;;24.29;69.57
40612;BME280;26317;44.894;20.286;2022-09-09T00:37:26;100407.00;;;24.22;69.64
40612;BME280;26317;44.894;20.286;2022-09-09T00:40:45;100391.56;;;24.14;69.76
40612;BME280;26317;44.894;20.286;2022-09-09T00:43:27;100408.47;;;24.16;69.67
40612;BME280;26317;44.894;20.286;2022-09-09T00:46:17;100389.44;;;24.04;70.10
40612;BME280;26317;44.894;20.286;2022-09-09T00:49:27;100413.56;;;24.17;70.05
40612;BME280;26317;44.894;20.286;2022-09-09T00:52:39;100401.41;;;24.15;70.79
40612;BME280;26317;44.894;20.286;2022-09-09T00:55:24;100411.91;;;24.13;71.74
40612;BME280;26317;44.894;20.286;2022-09-09T00:57:59;100402.41;;;24.07;71.77
40612;BME280;26317;44.894;20.286;2022-09-09T01:00:43;100404.00;;;24.08;71.18
40612;BME280;26317;44.894;20.286;2022-09-09T01:03:37;100409.81;;;24.06;71.69
40612;BME280;26317;44.894;20.286;2022-09-09T01:06:30;100408.63;;;24.04;71.68
40612;BME280;26317;44.894;20.286;2022-09-09T01:09:17;100406.97;;;23.99;72.04
40612;BME280;26317;44.894;20.286;2022-09-09T01:11:59;100416.34;;;23.98;72.06
40612;BME280;26317;44.894;20.286;2022-09-09T01:14:49;100413.09;;;23.93;72.08
40612;BME280;26317;44.894;20.286;2022-09-09T01:17:30;100423.91;;;23.86;72.11
40612;BME280;26317;44.894;20.286;2022-09-09T01:20:14;100442.41;;;23.69;73.02
40612;BME280;26317;44.894;20.286;2022-09-09T01:23:16;100445.91;;;23.51;75.07
40612;BME280;26317;44.894;20.286;2022-09-09T01:26:24;100444.78;;;23.36;75.38
40612;BME280;26317;44.894;20.286;2022-09-09T01:29:02;100445.22;;;23.38;75.70
40612;BME280;26317;44.894;20.286;2022-09-09T01:31:51;100439.66;;;23.34;75.77
40612;BME280;26317;44.894;20.286;2022-09-09T01:34:50;100452.72;;;23.41;76.47
40612;BME280;26317;44.894;20.286;2022-09-09T01:37:22;100413.16;;;23.19;76.10
40612;BME280;26317;44.894;20.286;2022-09-09T01:39:59;100439.84;;;23.42;76.09
40612;BME280;26317;44.894;20.286;2022-09-09T01:42:35;100432.25;;;23.35;76.75
40612;BME280;26317;44.894;20.286;2022-09-09T01:45:18;100454.06;;;23.47;76.41
40612;BME280;26317;44.894;20.286;2022-09-09T01:48:04;100450.09;;;23.45;76.30
40612;BME280;26317;44.894;20.286;2022-09-09T01:50:59;100454.28;;;23.42;75.78
40612;BME280;26317;44.894;20.286;2022-09-09T01:53:31;100453.44;;;23.38;75.95
40612;BME280;26317;44.894;20.286;2022-09-09T01:56:13;100431.97;;;23.21;75.58
40612;BME280;26317;44.894;20.286;2022-09-09T02:02:04;100451.69;;;23.30;75.20
40612;BME280;26317;44.894;20.286;2022-09-09T02:04:48;100459.91;;;23.30;75.29
40612;BME280;26317;44.894;20.286;2022-09-09T02:07:38;100454.13;;;23.16;75.18
40612;BME280;26317;44.894;20.286;2022-09-09T02:10:30;100467.09;;;23.19;75.61
40612;BME280;26317;44.894;20.286;2022-09-09T02:13:23;100453.06;;;23.05;75.86
40612;BME280;26317;44.894;20.286;2022-09-09T02:16:16;100472.50;;;23.15;75.78
40612;BME280;26317;44.894;20.286;2022-09-09T02:19:15;100455.38;;;23.03;75.94
40612;BME280;26317;44.894;20.286;2022-09-09T02:22:15;100465.34;;;23.11;75.93
40612;BME280;26317;44.894;20.286;2022-09-09T02:24:51;100468.59;;;23.16;75.81
40612;BME280;26317;44.894;20.286;2022-09-09T02:27:31;100467.81;;;23.16;75.83
40612;BME280;26317;44.894;20.286;2022-09-09T02:30:14;100463.13;;;23.16;76.31
40612;BME280;26317;44.894;20.286;2022-09-09T02:33:03;100468.59;;;23.16;76.52
40612;BME280;26317;44.894;20.286;2022-09-09T02:35:52;100459.69;;;23.19;75.96
40612;BME280;26317;44.894;20.286;2022-09-09T02:38:50;100449.53;;;23.20;75.65
40612;BME280;26317;44.894;20.286;2022-09-09T02:41:50;100447.78;;;23.12;76.10
40612;BME280;26317;44.894;20.286;2022-09-09T02:44:49;100453.69;;;23.14;76.45
40612;BME280;26317;44.894;20.286;2022-09-09T02:47:29;100457.28;;;23.18;76.45
40612;BME280;26317;44.894;20.286;2022-09-09T02:50:31;100436.31;;;23.06;76.45
40612;BME280;26317;44.894;20.286;2022-09-09T02:53:39;100453.69;;;23.14;76.78
40612;BME280;26317;44.894;20.286;2022-09-09T02:56:20;100441.88;;;23.10;76.43
40612;BME280;26317;44.894;20.286;2022-09-09T02:58:55;100452.09;;;23.13;76.79
40612;BME280;26317;44.894;20.286;2022-09-09T03:01:29;100451.22;;;23.09;76.80
40612;BME280;26317;44.894;20.286;2022-09-09T03:04:07;100443.72;;;23.06;77.46
40612;BME280;26317;44.894;20.286;2022-09-09T03:06:41;100423.81;;;22.89;77.15
40612;BME280;26317;44.894;20.286;2022-09-09T03:09:35;100451.22;;;23.09;76.83
40612;BME280;26317;44.894;20.286;2022-09-09T03:12:23;100457.47;;;23.09;76.81
40612;BME280;26317;44.894;20.286;2022-09-09T03:15:26;100462.00;;;23.02;77.19
40612;BME280;26317;44.894;20.286;2022-09-09T03:18:00;100460.25;;;22.93;77.14
40612;BME280;26317;44.894;20.286;2022-09-09T03:20:31;100438.59;;;22.69;78.06
40612;BME280;26317;44.894;20.286;2022-09-09T03:23:14;100447.59;;;22.70;78.73
40612;BME280;26317;44.894;20.286;2022-09-09T03:25:55;100459.56;;;22.65;78.44
40612;BME280;26317;44.894;20.286;2022-09-09T03:28:41;100471.88;;;22.59;79.42
40612;BME280;26317;44.894;20.286;2022-09-09T03:31:17;100494.63;;;22.63;79.66
40612;BME280;26317;44.894;20.286;2022-09-09T03:33:56;100481.75;;;22.64;79.96
40612;BME280;26317;44.894;20.286;2022-09-09T03:36:35;100501.88;;;22.56;80.15
40612;BME280;26317;44.894;20.286;2022-09-09T03:39:07;100483.63;;;22.44;81.09
40612;BME280;26317;44.894;20.286;2022-09-09T03:41:42;100484.84;;;22.46;81.61
40612;BME280;26317;44.894;20.286;2022-09-09T03:44:15;100493.59;;;22.52;81.66
40612;BME280;26317;44.894;20.286;2022-09-09T03:46:48;100504.19;;;22.54;81.98
40612;BME280;26317;44.894;20.286;2022-09-09T03:49:18;100514.84;;;22.59;82.08
40612;BME280;26317;44.894;20.286;2022-09-09T03:52:00;100524.63;;;22.60;82.30
40612;BME280;26317;44.894;20.286;2022-09-09T03:54:49;100528.50;;;22.59;82.31
40612;BME280;26317;44.894;20.286;2022-09-09T03:57:22;100542.09;;;22.55;82.28
40612;BME280;26317;44.894;20.286;2022-09-09T03:59:56;100550.81;;;22.45;83.43
40612;BME280;26317;44.894;20.286;2022-09-09T04:02:31;100556.19;;;22.41;83.70
40612;BME280;26317;44.894;20.286;2022-09-09T04:05:20;100562.25;;;22.35;84.15
40612;BME280;26317;44.894;20.286;2022-09-09T04:07:51;100549.09;;;22.25;84.58
40612;BME280;26317;44.894;20.286;2022-09-09T04:10:37;100563.75;;;22.32;84.88
40612;BME280;26317;44.894;20.286;2022-09-09T04:13:13;100573.41;;;22.30;84.65
40612;BME280;26317;44.894;20.286;2022-09-09T04:15:58;100571.84;;;22.29;84.29
40612;BME280;26317;44.894;20.286;2022-09-09T04:18:39;100570.25;;;22.28;84.49
40612;BME280;26317;44.894;20.286;2022-09-09T04:21:17;100583.69;;;22.33;84.95
40612;BME280;26317;44.894;20.286;2022-09-09T04:23:50;100575.72;;;22.28;84.69
40612;BME280;26317;44.894;20.286;2022-09-09T04:26:24;100558.13;;;22.13;85.03
40612;BME280;26317;44.894;20.286;2022-09-09T04:28:55;100582.88;;;22.32;85.72
40612;BME280;26317;44.894;20.286;2022-09-09T04:31:33;100585.94;;;22.31;86.71
40612;BME280;26317;44.894;20.286;2022-09-09T04:34:08;100578.88;;;22.30;86.96
40612;BME280;26317;44.894;20.286;2022-09-09T04:36:43;100547.97;;;22.14;87.32
40612;BME280;26317;44.894;20.286;2022-09-09T04:39:24;100579.78;;;22.34;87.99
40612;BME280;26317;44.894;20.286;2022-09-09T04:42:17;100575.09;;;22.34;88.12
40612;BME280;26317;44.894;20.286;2022-09-09T04:44:52;100573.63;;;22.37;87.78
40612;BME280;26317;44.894;20.286;2022-09-09T04:47:24;100584.56;;;22.37;88.40
40612;BME280;26317;44.894;20.286;2022-09-09T04:50:08;100570.06;;;22.21;88.37
40612;BME280;26317;44.894;20.286;2022-09-09T04:52:43;100582.50;;;22.34;89.42
40612;BME280;26317;44.894;20.286;2022-09-09T04:55:17;100578.22;;;22.33;89.35
40612;BME280;26317;44.894;20.286;2022-09-09T04:58:05;100589.94;;;22.33;89.35
40612;BME280;26317;44.894;20.286;2022-09-09T05:00:45;100582.06;;;22.32;89.42
40612;BME280;26317;44.894;20.286;2022-09-09T05:03:16;100594.59;;;22.33;89.12
40612;BME280;26317;44.894;20.286;2022-09-09T05:05:49;100598.91;;;22.34;89.25
40612;BME280;26317;44.894;20.286;2022-09-09T05:08:27;100593.81;;;22.32;89.76
40612;BME280;26317;44.894;20.286;2022-09-09T05:10:58;100603.34;;;22.38;89.90
40612;BME280;26317;44.894;20.286;2022-09-09T05:13:41;100597.28;;;22.45;89.63
40612;BME280;26317;44.894;20.286;2022-09-09T05:16:16;100593.13;;;22.51;88.77
40612;BME280;26317;44.894;20.286;2022-09-09T05:18:49;100589.28;;;22.52;88.50
40612;BME280;26317;44.894;20.286;2022-09-09T05:21:22;100589.03;;;22.57;88.90
40612;BME280;26317;44.894;20.286;2022-09-09T05:23:57;100587.88;;;22.58;88.38
40612;BME280;26317;44.894;20.286;2022-09-09T05:26:26;100586.81;;;22.63;88.50
40612;BME280;26317;44.894;20.286;2022-09-09T05:29:03;100576.94;;;22.58;88.77
40612;BME280;26317;44.894;20.286;2022-09-09T05:31:38;100600.16;;;22.64;88.98
40612;BME280;26317;44.894;20.286;2022-09-09T05:34:17;100566.16;;;22.50;88.94
40612;BME280;26317;44.894;20.286;2022-09-09T05:36:50;100585.44;;;22.69;89.33
40612;BME280;26317;44.894;20.286;2022-09-09T05:39:30;100575.88;;;22.63;89.51
40612;BME280;26317;44.894;20.286;2022-09-09T05:42:06;100573.94;;;22.63;90.02
40612;BME280;26317;44.894;20.286;2022-09-09T05:44:49;100580.53;;;22.74;89.95
40612;BME280;26317;44.894;20.286;2022-09-09T05:47:23;100567.75;;;22.78;89.63
40612;BME280;26317;44.894;20.286;2022-09-09T05:49:59;100560.00;;;22.68;89.47
40612;BME280;26317;44.894;20.286;2022-09-09T05:52:35;100558.19;;;22.72;89.69
40612;BME280;26317;44.894;20.286;2022-09-09T05:55:23;100558.19;;;22.72;89.95
40612;BME280;26317;44.894;20.286;2022-09-09T05:57:57;100553.28;;;22.78;89.63
40612;BME280;26317;44.894;20.286;2022-09-09T06:00:48;100534.38;;;22.73;89.90
40612;BME280;26317;44.894;20.286;2022-09-09T06:03:23;100538.09;;;22.80;89.84
40612;BME280;26317;44.894;20.286;2022-09-09T06:06:08;100526.25;;;22.76;90.39
40612;BME280;26317;44.894;20.286;2022-09-09T06:08:43;100523.59;;;22.80;89.61
40612;BME280;26317;44.894;20.286;2022-09-09T06:11:25;100525.28;;;22.84;90.34
40612;BME280;26317;44.894;20.286;2022-09-09T06:14:04;100522.56;;;22.84;90.69
40612;BME280;26317;44.894;20.286;2022-09-09T06:16:45;100509.13;;;22.79;89.67
40612;BME280;26317;44.894;20.286;2022-09-09T06:19:22;100521.56;;;22.92;90.40
40612;BME280;26317;44.894;20.286;2022-09-09T06:22:01;100512.22;;;22.93;90.38
40612;BME280;26317;44.894;20.286;2022-09-09T06:24:47;100528.91;;;23.04;90.87
40612;BME280;26317;44.894;20.286;2022-09-09T06:27:19;100530.41;;;23.02;90.62
40612;BME280;26317;44.894;20.286;2022-09-09T06:29:55;100546.75;;;22.98;89.61
40612;BME280;26317;44.894;20.286;2022-09-09T06:32:48;100535.97;;;22.89;92.39
40612;BME280;26317;44.894;20.286;2022-09-09T06:35:31;100532.53;;;22.92;93.73
40612;BME280;26317;44.894;20.286;2022-09-09T06:38:03;100527.34;;;22.87;91.82
40612;BME280;26317;44.894;20.286;2022-09-09T06:40:36;100542.75;;;22.80;91.24
40612;BME280;26317;44.894;20.286;2022-09-09T06:43:09;100547.44;;;22.79;92.52
40612;BME280;26317;44.894;20.286;2022-09-09T06:46:03;100559.06;;;22.76;92.22
40612;BME280;26317;44.894;20.286;2022-09-09T06:48:42;100534.59;;;22.52;93.77
40612;BME280;26317;44.894;20.286;2022-09-09T06:51:19;100560.94;;;22.72;94.71
40612;BME280;26317;44.894;20.286;2022-09-09T06:54:03;100557.41;;;22.72;95.11
40612;BME280;26317;44.894;20.286;2022-09-09T06:56:37;100554.31;;;22.73;94.36
40612;BME280;26317;44.894;20.286;2022-09-09T07:02:16;100561.31;;;22.86;92.87
40612;BME280;26317;44.894;20.286;2022-09-09T07:04:58;100563.78;;;22.91;92.83
40612;BME280;26317;44.894;20.286;2022-09-09T07:07:34;100567.41;;;22.96;93.13
40612;BME280;26317;44.894;20.286;2022-09-09T07:10:06;100566.06;;;23.05;92.90
40612;BME280;26317;44.894;20.286;2022-09-09T07:12:39;100567.47;;;23.15;93.33
40612;BME280;26317;44.894;20.286;2022-09-09T07:15:14;100578.50;;;23.18;93.90
40612;BME280;26317;44.894;20.286;2022-09-09T07:17:46;100574.16;;;23.17;91.96
40612;BME280;26317;44.894;20.286;2022-09-09T07:20:37;100585.56;;;23.35;92.08
40612;BME280;26317;44.894;20.286;2022-09-09T07:23:11;100594.22;;;23.37;90.81
40612;BME280;26317;44.894;20.286;2022-09-09T07:25:44;100575.16;;;23.25;89.78
40612;BME280;26317;44.894;20.286;2022-09-09T07:28:17;100619.50;;;23.46;89.69
40612;BME280;26317;44.894;20.286;2022-09-09T07:30:54;100597.56;;;23.30;89.55
40612;BME280;26317;44.894;20.286;2022-09-09T07:33:33;100627.00;;;23.49;89.34
40612;BME280;26317;44.894;20.286;2022-09-09T07:36:19;100623.53;;;23.52;89.90
40612;BME280;26317;44.894;20.286;2022-09-09T07:38:52;100631.75;;;23.52;88.90
40612;BME280;26317;44.894;20.286;2022-09-09T07:41:26;100633.19;;;23.46;89.12
40612;BME280;26317;44.894;20.286;2022-09-09T07:44:04;100634.69;;;23.44;88.15
40612;BME280;26317;44.894;20.286;2022-09-09T07:46:40;100643.69;;;23.44;89.15
40612;BME280;26317;44.894;20.286;2022-09-09T07:49:19;100642.97;;;23.47;89.10
40612;BME280;26317;44.894;20.286;2022-09-09T07:52:02;100639.00;;;23.45;88.18
40612;BME280;26317;44.894;20.286;2022-09-09T07:54:36;100657.84;;;23.46;88.09
40612;BME280;26317;44.894;20.286;2022-09-09T07:57:17;100645.78;;;23.35;88.95
40612;BME280;26317;44.894;20.286;2022-09-09T07:59:52;100656.47;;;23.40;88.98
40612;BME280;26317;44.894;20.286;2022-09-09T08:02:25;100656.88;;;23.42;89.60
40612;BME280;26317;44.894;20.286;2022-09-09T08:04:58;100649.84;;;23.41;89.46
40612;BME280;26317;44.894;20.286;2022-09-09T08:07:43;100654.53;;;23.41;88.30
40612;BME280;26317;44.894;20.286;2022-09-09T08:10:17;100636.94;;;23.26;87.98
40612;BME280;26317;44.894;20.286;2022-09-09T08:12:55;100625.91;;;23.22;87.97
40612;BME280;26317;44.894;20.286;2022-09-09T08:15:27;100659.19;;;23.40;87.91
40612;BME280;26317;44.894;20.286;2022-09-09T08:18:10;100639.34;;;23.27;88.96
40612;BME280;26317;44.894;20.286;2022-09-09T08:20:44;100652.06;;;23.35;88.90
40612;BME280;26317;44.894;20.286;2022-09-09T08:23:30;100665.25;;;23.46;89.18
40612;BME280;26317;44.894;20.286;2022-09-09T08:26:07;100655.53;;;23.48;89.46
40612;BME280;26317;44.894;20.286;2022-09-09T08:28:44;100644.72;;;23.55;89.14
40612;BME280;26317;44.894;20.286;2022-09-09T08:31:14;100636.69;;;23.62;88.39
40612;BME280;26317;44.894;20.286;2022-09-09T08:33:54;100629.78;;;23.68;87.02
40612;BME280;26317;44.894;20.286;2022-09-09T08:36:30;100620.69;;;23.64;87.19
40612;BME280;26317;44.894;20.286;2022-09-09T08:39:26;100585.47;;;23.47;87.63
40612;BME280;26317;44.894;20.286;2022-09-09T08:45:31;100618.59;;;23.93;85.29
40612;BME280;26317;44.894;20.286;2022-09-09T08:48:29;100621.28;;;24.08;84.46
40612;BME280;26317;44.894;20.286;2022-09-09T08:51:14;100607.59;;;24.08;85.03
40612;BME280;26317;44.894;20.286;2022-09-09T08:53:49;100613.84;;;24.24;85.04
40612;BME280;26317;44.894;20.286;2022-09-09T08:56:40;100592.38;;;24.30;84.17
40612;BME280;26317;44.894;20.286;2022-09-09T08:59:17;100613.19;;;24.50;82.80
40612;BME280;26317;44.894;20.286;2022-09-09T09:02:03;100604.34;;;24.60;82.97
40612;BME280;26317;44.894;20.286;2022-09-09T09:05:07;100606.06;;;24.68;80.62
40612;BME280;26317;44.894;20.286;2022-09-09T09:07:52;100598.91;;;24.64;78.43
40612;BME280;26317;44.894;20.286;2022-09-09T09:10:44;100602.34;;;24.80;79.71
40612;BME280;26317;44.894;20.286;2022-09-09T09:13:44;100601.72;;;24.87;78.83
40612;BME280;26317;44.894;20.286;2022-09-09T09:16:23;100603.72;;;24.90;79.08
40612;BME280;26317;44.894;20.286;2022-09-09T09:19:05;100586.31;;;24.82;79.08
40612;BME280;26317;44.894;20.286;2022-09-09T09:21:44;100603.56;;;25.02;78.17
40612;BME280;26317;44.894;20.286;2022-09-09T09:24:30;100590.72;;;25.09;78.09
40612;BME280;26317;44.894;20.286;2022-09-09T09:27:21;100600.00;;;25.24;77.70
40612;BME280;26317;44.894;20.286;2022-09-09T09:30:14;100598.22;;;25.35;76.80
40612;BME280;26317;44.894;20.286;2022-09-09T09:33:08;100596.97;;;25.55;76.20
40612;BME280;26317;44.894;20.286;2022-09-09T09:35:49;100570.13;;;25.45;74.47
40612;BME280;26317;44.894;20.286;2022-09-09T09:38:24;100605.97;;;25.79;74.21
40612;BME280;26317;44.894;20.286;2022-09-09T09:43:54;100591.22;;;25.90;71.38
40612;BME280;26317;44.894;20.286;2022-09-09T09:46:35;100590.31;;;25.83;70.63
40612;BME280;26317;44.894;20.286;2022-09-09T09:49:12;100592.00;;;25.91;72.04
40612;BME280;26317;44.894;20.286;2022-09-09T09:51:46;100594.47;;;25.99;70.10
40612;BME280;26317;44.894;20.286;2022-09-09T09:54:58;100589.94;;;26.14;71.45
40612;BME280;26317;44.894;20.286;2022-09-09T09:57:35;100583.00;;;26.24;71.39
40612;BME280;26317;44.894;20.286;2022-09-09T10:00:19;100576.84;;;26.34;69.42
40612;BME280;26317;44.894;20.286;2022-09-09T10:03:22;100584.94;;;26.57;69.67
40612;BME280;26317;44.894;20.286;2022-09-09T10:05:55;100585.09;;;26.71;68.07
40612;BME280;26317;44.894;20.286;2022-09-09T10:08:28;100583.19;;;26.75;67.02
40612;BME280;26317;44.894;20.286;2022-09-09T10:11:15;100591.50;;;26.82;65.81
40612;BME280;26317;44.894;20.286;2022-09-09T10:14:03;100584.09;;;26.86;64.83
40612;BME280;26317;44.894;20.286;2022-09-09T10:16:59;100583.38;;;26.92;65.44
40612;BME280;26317;44.894;20.286;2022-09-09T10:19:58;100578.72;;;27.00;62.30
40612;BME280;26317;44.894;20.286;2022-09-09T10:22:43;100577.59;;;27.08;59.75
40612;BME280;26317;44.894;20.286;2022-09-09T10:25:48;100565.91;;;27.22;61.73
40612;BME280;26317;44.894;20.286;2022-09-09T10:28:52;100557.28;;;27.30;62.20
40612;BME280;26317;44.894;20.286;2022-09-09T10:31:48;100566.84;;;27.43;60.71
40612;BME280;26317;44.894;20.286;2022-09-09T10:34:39;100566.94;;;27.51;60.61
40612;BME280;26317;44.894;20.286;2022-09-09T10:37:34;100554.34;;;27.53;59.00
40612;BME280;26317;44.894;20.286;2022-09-09T10:40:32;100564.66;;;27.67;57.01
40612;BME280;26317;44.894;20.286;2022-09-09T10:43:22;100559.97;;;27.71;55.81
40612;BME280;26317;44.894;20.286;2022-09-09T10:46:11;100535.53;;;27.73;59.25
40612;BME280;26317;44.894;20.286;2022-09-09T10:48:55;100556.53;;;27.95;58.08
40612;BME280;26317;44.894;20.286;2022-09-09T10:51:40;100548.69;;;28.08;58.02
40612;BME280;26317;44.894;20.286;2022-09-09T10:54:36;100556.16;;;28.04;59.36
40612;BME280;26317;44.894;20.286;2022-09-09T10:57:25;100553.03;;;28.05;59.12
40612;BME280;26317;44.894;20.286;2022-09-09T11:00:15;100544.38;;;28.10;58.12
40612;BME280;26317;44.894;20.286;2022-09-09T11:03:00;100529.44;;;28.11;57.88
40612;BME280;26317;44.894;20.286;2022-09-09T11:05:44;100533.41;;;28.21;57.67
40612;BME280;26317;44.894;20.286;2022-09-09T11:08:19;100531.44;;;28.28;57.38
40612;BME280;26317;44.894;20.286;2022-09-09T11:11:06;100519.25;;;28.40;58.01
40612;BME280;26317;44.894;20.286;2022-09-09T11:13:45;100514.53;;;28.48;58.48
40612;BME280;26317;44.894;20.286;2022-09-09T11:16:31;100514.53;;;28.48;57.85
40612;BME280;26317;44.894;20.286;2022-09-09T11:19:13;100507.44;;;28.50;57.21
40612;BME280;26317;44.894;20.286;2022-09-09T11:21:52;100507.44;;;28.57;57.19
40612;BME280;26317;44.894;20.286;2022-09-09T11:24:28;100504.31;;;28.69;53.81
40612;BME280;26317;44.894;20.286;2022-09-09T11:27:14;100509.47;;;28.78;53.29
40612;BME280;26317;44.894;20.286;2022-09-09T11:36:05;100481.03;;;29.09;55.31
40612;BME280;26317;44.894;20.286;2022-09-09T11:38:51;100491.28;;;29.30;53.38
40612;BME280;26317;44.894;20.286;2022-09-09T11:41:33;100477.84;;;29.36;49.67
40612;BME280;26317;44.894;20.286;2022-09-09T11:44:25;100496.75;;;29.55;51.41
40612;BME280;26317;44.894;20.286;2022-09-09T11:47:15;100485.63;;;29.65;51.06
40612;BME280;26317;44.894;20.286;2022-09-09T11:49:53;100450.19;;;29.46;51.26
40612;BME280;26317;44.894;20.286;2022-09-09T11:52:44;100477.69;;;29.78;52.12
40612;BME280;26317;44.894;20.286;2022-09-09T11:55:26;100476.03;;;29.95;52.38
40612;BME280;26317;44.894;20.286;2022-09-09T11:58:02;100477.09;;;30.15;51.36
40612;BME280;26317;44.894;20.286;2022-09-09T12:00:51;100475.13;;;30.15;51.27
40612;BME280;26317;44.894;20.286;2022-09-09T12:03:48;100473.13;;;30.20;50.61
40612;BME280;26317;44.894;20.286;2022-09-09T12:06:41;100479.94;;;30.04;51.65
40612;BME280;26317;44.894;20.286;2022-09-09T12:09:21;100470.97;;;29.79;51.72
40612;BME280;26317;44.894;20.286;2022-09-09T12:12:23;100470.66;;;29.63;53.85
40612;BME280;26317;44.894;20.286;2022-09-09T12:15:20;100469.41;;;29.75;51.48
40612;BME280;26317;44.894;20.286;2022-09-09T12:17:56;100457.91;;;29.83;50.18
40612;BME280;26317;44.894;20.286;2022-09-09T12:20:54;100418.06;;;29.70;50.03
40612;BME280;26317;44.894;20.286;2022-09-09T12:23:37;100450.22;;;30.15;48.45
40612;BME280;26317;44.894;20.286;2022-09-09T12:26:41;100439.41;;;30.35;46.60
40612;BME280;26317;44.894;20.286;2022-09-09T12:29:21;100441.34;;;30.45;43.22
40612;BME280;26317;44.894;20.286;2022-09-09T12:32:08;100434.16;;;30.55;42.36
40612;BME280;26317;44.894;20.286;2022-09-09T12:34:49;100430.22;;;30.52;41.28
40612;BME280;26317;44.894;20.286;2022-09-09T12:37:29;100432.06;;;30.66;41.76
40612;BME280;26317;44.894;20.286;2022-09-09T12:40:14;100425.66;;;30.76;42.22
40612;BME280;26317;44.894;20.286;2022-09-09T12:42:52;100430.28;;;30.86;41.30
40612;BME280;26317;44.894;20.286;2022-09-09T12:45:25;100429.81;;;30.95;40.99
40612;BME280;26317;44.894;20.286;2022-09-09T12:51:03;100413.38;;;31.15;40.91
40612;BME280;26317;44.894;20.286;2022-09-09T12:53:39;100415.31;;;31.21;40.89
40612;BME280;26317;44.894;20.286;2022-09-09T12:56:24;100413.19;;;31.32;40.68
40612;BME280;26317;44.894;20.286;2022-09-09T12:58:58;100416.19;;;31.45;37.84
40612;BME280;26317;44.894;20.286;2022-09-09T13:01:35;100386.16;;;31.40;36.87
40612;BME280;26317;44.894;20.286;2022-09-09T13:04:19;100404.50;;;31.64;34.90
40612;BME280;26317;44.894;20.286;2022-09-09T13:07:06;100403.94;;;31.76;34.90
40612;BME280;26317;44.894;20.286;2022-09-09T13:09:51;100392.69;;;31.60;36.90
40612;BME280;26317;44.894;20.286;2022-09-09T13:12:28;100392.72;;;31.53;38.06
40612;BME280;26317;44.894;20.286;2022-09-09T13:15:10;100383.31;;;31.47;39.70
40612;BME280;26317;44.894;20.286;2022-09-09T13:17:51;100383.13;;;31.61;39.78
40612;BME280;26317;44.894;20.286;2022-09-09T13:20:23;100378.66;;;31.71;38.97
40612;BME280;26317;44.894;20.286;2022-09-09T13:23:15;100384.00;;;31.85;38.95
40612;BME280;26317;44.894;20.286;2022-09-09T13:25:56;100374.25;;;32.00;38.51
40612;BME280;26317;44.894;20.286;2022-09-09T13:28:30;100375.56;;;32.19;39.06
40612;BME280;26317;44.894;20.286;2022-09-09T13:31:23;100374.19;;;32.30;39.70
40612;BME280;26317;44.894;20.286;2022-09-09T13:34:02;100374.00;;;32.41;39.56
40612;BME280;26317;44.894;20.286;2022-09-09T13:36:47;100360.34;;;32.50;39.40
40612;BME280;26317;44.894;20.286;2022-09-09T13:39:28;100377.63;;;32.61;38.53
40612;BME280;26317;44.894;20.286;2022-09-09T13:41:57;100370.50;;;32.60;39.03
40612;BME280;26317;44.894;20.286;2022-09-09T13:44:29;100359.00;;;32.58;38.94
40612;BME280;26317;44.894;20.286;2022-09-09T13:47:04;100366.16;;;32.36;40.21
40612;BME280;26317;44.894;20.286;2022-09-09T13:49:38;100363.63;;;32.22;40.41
40612;BME280;26317;44.894;20.286;2022-09-09T13:52:17;100358.53;;;32.17;40.40
40612;BME280;26317;44.894;20.286;2022-09-09T13:55:08;100346.72;;;32.13;41.15
40612;BME280;26317;44.894;20.286;2022-09-09T13:57:54;100354.56;;;32.18;41.31
40612;BME280;26317;44.894;20.286;2022-09-09T14:00:38;100349.22;;;32.04;40.92
40612;BME280;26317;44.894;20.286;2022-09-09T14:03:12;100365.72;;;31.87;41.66
40612;BME280;26317;44.894;20.286;2022-09-09T14:05:45;100365.63;;;31.68;41.72
40612;BME280;26317;44.894;20.286;2022-09-09T14:08:25;100372.28;;;31.43;41.67
40612;BME280;26317;44.894;20.286;2022-09-09T14:11:11;100348.59;;;31.05;42.41
40612;BME280;26317;44.894;20.286;2022-09-09T14:13:50;100375.19;;;30.95;43.19
40612;BME280;26317;44.894;20.286;2022-09-09T14:16:24;100347.75;;;30.71;43.75
40612;BME280;26317;44.894;20.286;2022-09-09T14:19:12;100361.88;;;30.83;44.06
40612;BME280;26317;44.894;20.286;2022-09-09T14:21:48;100346.09;;;30.80;44.34